Time;durP1;ratioP1;P1;durP2;ratioP2;P2;SDS_P1;SDS_P2;PMS_P1;PMS_P2;Temp;Humidity;BMP_temperature;BMP_pressure;BME280_temperature;BME280_humidity;BME280_pressure;Samples;Min_cycle;Max_cycle;Signal;HPM_P1;HPM_P2
2022/10/20 00:02:23;;;;;;;3.58;3.20;;;20.40;63.20;;;;;;5086045;28;45375;-71
2022/10/20 00:04:50;;;;;;;4.35;2.90;;;20.40;62.60;;;;;;5086153;28;45438;-71
2022/10/20 00:07:17;;;;;;;5.88;3.08;;;20.40;62.50;;;;;;5085704;28;46345;-71
2022/10/20 00:09:44;;;;;;;3.80;3.40;;;20.40;62.40;;;;;;5085798;28;45254;-71
2022/10/20 00:12:10;;;;;;;3.30;2.78;;;20.40;62.50;;;;;;5086097;28;45207;-70
2022/10/20 00:14:38;;;;;;;2.85;2.60;;;20.30;62.40;;;;;;5085742;28;45341;-70
2022/10/20 00:17:06;;;;;;;3.42;2.70;;;20.30;62.30;;;;;;5085559;28;46722;-70
2022/10/20 00:19:33;;;;;;;3.50;2.67;;;20.30;62.40;;;;;;5083103;28;45366;-69
2022/10/20 00:22:00;;;;;;;2.97;2.67;;;20.30;62.40;;;;;;5085623;28;45286;-71
2022/10/20 00:24:27;;;;;;;3.65;3.13;;;20.30;62.40;;;;;;5085931;28;45181;-69
2022/10/20 00:26:54;;;;;;;3.60;2.83;;;20.30;62.40;;;;;;5085665;28;46566;-70
2022/10/20 00:29:20;;;;;;;3.15;2.85;;;20.30;62.40;;;;;;5085501;28;45340;-70
2022/10/20 00:31:47;;;;;;;3.20;2.90;;;20.30;62.40;;;;;;5085616;28;45316;-70
2022/10/20 00:34:15;;;;;;;3.60;3.15;;;20.20;62.40;;;;;;5085623;28;45120;-70
2022/10/20 00:36:42;;;;;;;2.95;2.65;;;20.20;62.30;;;;;;5085291;28;45463;-70
2022/10/20 00:39:09;;;;;;;6.30;3.10;;;20.20;62.30;;;;;;5085310;28;45316;-69
2022/10/20 00:41:36;;;;;;;4.63;2.90;;;20.20;62.30;;;;;;5085676;28;45356;-71
2022/10/20 00:44:23;;;;;;;3.30;3.00;;;20.20;62.30;;;;;;5085226;28;45446;-70
2022/10/20 00:46:50;;;;;;;3.28;2.95;;;20.20;62.40;;;;;;5085074;28;46693;-70
2022/10/20 00:49:20;;;;;;;2.90;2.58;;;20.20;62.30;;;;;;5085477;28;45302;-70
2022/10/20 00:51:47;;;;;;;5.03;3.30;;;20.20;62.40;;;;;;5085633;28;45334;-70
2022/10/20 00:54:18;;;;;;;3.40;3.10;;;20.10;62.30;;;;;;5085616;28;45198;-71
2022/10/20 00:56:45;;;;;;;3.05;2.85;;;20.10;62.40;;;;;;5085226;28;45469;-71
2022/10/20 00:59:13;;;;;;;3.10;2.80;;;20.10;62.30;;;;;;5085272;28;45321;-71
2022/10/20 01:01:40;;;;;;;3.25;2.95;;;20.10;62.30;;;;;;5085473;28;45241;-68
2022/10/20 01:04:06;;;;;;;2.95;2.65;;;20.10;62.30;;;;;;5085489;28;45511;-70
2022/10/20 01:06:36;;;;;;;3.75;2.78;;;20.10;62.30;;;;;;5085023;28;45200;-70
2022/10/20 01:09:04;;;;;;;3.15;2.85;;;20.10;62.20;;;;;;5085062;28;45293;-69
2022/10/20 01:11:35;;;;;;;3.65;2.85;;;20.10;62.30;;;;;;5086633;27;45257;-69
2022/10/20 01:14:09;;;;;;;4.07;2.90;;;20.10;62.20;;;;;;5088852;28;45335;-71
2022/10/20 01:16:41;;;;;;;3.05;2.75;;;20.00;63.00;;;;;;5105065;27;45289;-70
2022/10/20 01:19:16;;;;;;;3.50;2.70;;;20.00;62.20;;;;;;5109062;27;45225;-69
2022/10/20 01:22:07;;;;;;;3.30;3.00;;;20.00;62.20;;;;;;5109267;27;45270;-69
2022/10/20 01:24:45;;;;;;;2.67;2.47;;;20.00;62.20;;;;;;5109225;27;45390;-70
2022/10/20 01:27:27;;;;;;;3.28;2.72;;;20.00;62.20;;;;;;5108827;27;46396;-71
2022/10/20 01:29:56;;;;;;;3.08;2.75;;;20.00;62.30;;;;;;5108930;27;45446;-69
2022/10/20 01:32:23;;;;;;;2.67;2.40;;;20.00;62.20;;;;;;5108962;27;45317;-70
2022/10/20 01:34:53;;;;;;;2.95;2.47;;;20.00;62.20;;;;;;5108892;27;45395;-69
2022/10/20 01:37:25;;;;;;;2.63;2.40;;;19.90;62.20;;;;;;5092408;27;47349;-69
2022/10/20 01:39:53;;;;;;;2.92;2.72;;;19.90;62.20;;;;;;5088074;28;45297;-70
2022/10/20 01:42:22;;;;;;;2.53;2.33;;;19.90;62.20;;;;;;5088324;28;45213;-68
2022/10/20 01:44:51;;;;;;;2.67;2.47;;;19.90;62.20;;;;;;5088421;28;45550;-70
2022/10/20 01:47:17;;;;;;;3.08;2.78;;;19.90;62.20;;;;;;5087941;28;46428;-69
2022/10/20 01:49:44;;;;;;;2.83;2.60;;;19.90;62.20;;;;;;5088092;28;45240;-70
2022/10/20 01:52:11;;;;;;;2.53;2.33;;;19.90;62.20;;;;;;5088190;28;45251;-70
2022/10/20 01:54:38;;;;;;;2.42;2.22;;;19.90;62.20;;;;;;5088229;28;45404;-69
2022/10/20 01:57:16;;;;;;;2.90;2.35;;;19.90;62.20;;;;;;5087929;28;46385;-70
2022/10/20 01:59:50;;;;;;;2.58;2.15;;;19.90;62.20;;;;;;5087789;28;45301;-70
2022/10/20 02:02:35;;;;;;;2.60;2.40;;;19.90;62.20;;;;;;5088085;28;45295;-69
2022/10/20 02:05:18;;;;;;;2.53;2.30;;;19.80;62.20;;;;;;5088070;28;45312;-69
2022/10/20 02:07:45;;;;;;;2.75;2.55;;;19.80;62.20;;;;;;5087577;28;45477;-70
2022/10/20 02:10:14;;;;;;;3.13;2.47;;;19.80;62.20;;;;;;5087693;28;45334;-70
2022/10/20 02:12:42;;;;;;;3.03;2.70;;;19.80;62.10;;;;;;5087796;28;45210;-69
2022/10/20 02:15:11;;;;;;;3.20;2.90;;;19.80;62.20;;;;;;5087932;28;45193;-70
2022/10/20 02:17:37;;;;;;;2.28;2.08;;;19.80;62.20;;;;;;5087703;28;45307;-69
2022/10/20 02:20:06;;;;;;;2.40;2.20;;;19.80;62.90;;;;;;5087655;28;45320;-69
2022/10/20 02:22:33;;;;;;;2.53;2.30;;;19.80;62.20;;;;;;5087772;27;45220;-69
2022/10/20 02:24:59;;;;;;;2.58;2.38;;;19.80;62.20;;;;;;5085193;28;45194;-69
2022/10/20 02:27:29;;;;;;;2.80;2.53;;;19.80;62.20;;;;;;5087580;28;47479;-70
2022/10/20 02:29:58;;;;;;;2.70;2.40;;;19.80;62.20;;;;;;5087543;28;45283;-69
2022/10/20 02:32:26;;;;;;;2.45;2.25;;;19.80;62.20;;;;;;5087668;28;45147;-70
2022/10/20 02:34:53;;;;;;;2.30;2.10;;;19.70;62.80;;;;;;5087613;28;45415;-70
2022/10/20 02:37:20;;;;;;;2.50;2.30;;;19.70;62.10;;;;;;5087490;28;46463;-70
2022/10/20 02:39:46;;;;;;;3.25;2.42;;;19.70;62.10;;;;;;5087200;28;45237;-70
2022/10/20 02:42:15;;;;;;;2.97;2.30;;;19.70;62.10;;;;;;5087454;28;45170;-70
2022/10/20 02:44:42;;;;;;;2.80;2.40;;;19.70;62.10;;;;;;5087204;28;45420;-70
2022/10/20 02:47:09;;;;;;;2.92;2.42;;;19.70;62.10;;;;;;5087181;28;46368;-69
2022/10/20 02:49:37;;;;;;;2.50;2.30;;;19.70;62.10;;;;;;5087175;28;45272;-70
2022/10/20 02:52:04;;;;;;;2.47;2.17;;;19.70;62.10;;;;;;5087289;28;45222;-70
2022/10/20 02:54:31;;;;;;;2.92;2.47;;;19.70;62.10;;;;;;5087354;28;45288;-70
2022/10/20 02:56:58;;;;;;;3.83;2.40;;;19.70;62.10;;;;;;5086927;28;46421;-69
2022/10/20 02:59:25;;;;;;;2.25;2.08;;;19.70;62.10;;;;;;5086899;28;45320;-69
2022/10/20 03:01:52;;;;;;;2.78;2.33;;;19.60;62.00;;;;;;5087026;28;45234;-69
2022/10/20 03:04:19;;;;;;;2.50;2.28;;;19.60;62.00;;;;;;5087283;28;45181;-69
2022/10/20 03:06:47;;;;;;;2.35;2.15;;;19.60;62.00;;;;;;5086922;28;45465;-69
2022/10/20 03:09:14;;;;;;;2.30;2.15;;;19.60;62.10;;;;;;5086942;28;45307;-70
2022/10/20 03:11:41;;;;;;;2.22;2.03;;;19.60;62.00;;;;;;5086888;28;45254;-69
2022/10/20 03:14:07;;;;;;;3.30;2.40;;;19.60;62.00;;;;;;5087065;28;45195;-69
2022/10/20 03:16:34;;;;;;;2.53;2.33;;;19.60;62.00;;;;;;5086400;28;46355;-70
2022/10/20 03:19:01;;;;;;;2.55;2.35;;;19.60;62.00;;;;;;5086511;28;45305;-70
2022/10/20 03:21:28;;;;;;;2.38;2.17;;;19.60;62.00;;;;;;5086731;28;45487;-69
2022/10/20 03:23:56;;;;;;;2.65;2.13;;;19.60;62.00;;;;;;5087077;28;45413;-70
2022/10/20 03:26:23;;;;;;;2.53;2.33;;;19.50;62.00;;;;;;5086379;28;46376;-70
2022/10/20 03:28:50;;;;;;;2.50;2.30;;;19.50;62.00;;;;;;5086674;28;45233;-71
2022/10/20 03:31:17;;;;;;;2.15;2.00;;;19.50;62.00;;;;;;5086680;28;45289;-70
2022/10/20 03:33:44;;;;;;;2.10;1.92;;;19.50;62.00;;;;;;5086128;28;45372;-70
2022/10/20 03:36:11;;;;;;;2.22;2.08;;;19.50;62.00;;;;;;5086127;28;46347;-69
2022/10/20 03:38:39;;;;;;;3.17;1.80;;;19.50;62.00;;;;;;5086310;28;45252;-69
2022/10/20 03:41:07;;;;;;;2.78;2.33;;;19.50;62.00;;;;;;5086405;28;45218;-70
2022/10/20 03:43:34;;;;;;;2.30;2.10;;;19.50;62.00;;;;;;5086334;28;45334;-70
2022/10/20 03:46:02;;;;;;;2.92;2.55;;;19.50;62.00;;;;;;5086269;28;46314;-69
2022/10/20 03:48:29;;;;;;;2.30;2.10;;;19.50;62.00;;;;;;5086182;28;45142;-70
2022/10/20 03:50:56;;;;;;;3.25;2.00;;;19.50;62.00;;;;;;5086289;28;45207;-70
2022/10/20 03:53:22;;;;;;;2.30;2.10;;;19.50;62.10;;;;;;5086361;28;45272;-69
2022/10/20 03:55:49;;;;;;;2.40;2.20;;;19.40;62.00;;;;;;5085918;28;45288;-70
2022/10/20 03:58:18;;;;;;;1.90;1.80;;;19.40;62.00;;;;;;5086311;28;45419;-70
2022/10/20 04:00:44;;;;;;;3.05;2.30;;;19.40;61.90;;;;;;5086102;28;45210;-70
2022/10/20 04:03:11;;;;;;;2.40;2.20;;;19.40;62.00;;;;;;5086355;28;45294;-71
2022/10/20 04:05:38;;;;;;;2.40;2.20;;;19.40;62.00;;;;;;5085880;28;45292;-71
2022/10/20 04:08:05;;;;;;;2.30;2.10;;;19.40;62.00;;;;;;5086074;28;45329;-71
2022/10/20 04:10:32;;;;;;;2.55;2.35;;;19.40;61.90;;;;;;5086123;28;45280;-70
2022/10/20 04:12:59;;;;;;;3.10;2.17;;;19.40;62.00;;;;;;5086176;28;45633;-71
2022/10/20 04:15:27;;;;;;;2.30;2.10;;;19.40;62.00;;;;;;5085652;28;46427;-71
2022/10/20 04:17:54;;;;;;;2.40;2.20;;;19.40;62.00;;;;;;5085671;28;45328;-71
2022/10/20 04:20:21;;;;;;;2.60;2.10;;;19.30;61.80;;;;;;5085835;28;45285;-70
2022/10/20 04:22:47;;;;;;;2.30;2.10;;;19.40;62.00;;;;;;5085850;28;45181;-70
2022/10/20 04:25:14;;;;;;;2.35;2.08;;;19.40;61.90;;;;;;5085596;28;46718;-70
2022/10/20 04:27:41;;;;;;;2.92;2.20;;;19.40;61.90;;;;;;5085562;28;45265;-69
2022/10/20 04:30:09;;;;;;;2.40;2.20;;;19.30;61.80;;;;;;5085966;28;45324;-70
2022/10/20 04:32:37;;;;;;;3.20;2.25;;;19.30;61.90;;;;;;5085846;28;45368;-70
2022/10/20 04:35:05;;;;;;;2.45;2.25;;;19.30;61.90;;;;;;5085326;28;45250;-70
2022/10/20 04:37:32;;;;;;;2.40;2.20;;;19.30;61.90;;;;;;5085379;28;45320;-69
2022/10/20 04:39:59;;;;;;;2.72;2.40;;;19.30;61.90;;;;;;5085525;28;45444;-69
2022/10/20 04:42:26;;;;;;;2.33;2.13;;;19.30;61.90;;;;;;5085589;27;45432;-70
2022/10/20 04:44:53;;;;;;;2.63;2.42;;;19.30;61.90;;;;;;5085260;28;46407;-69
2022/10/20 04:47:19;;;;;;;1.92;1.83;;;19.20;61.90;;;;;;5088110;28;45200;-69
2022/10/20 04:49:48;;;;;;;2.30;2.10;;;19.20;61.90;;;;;;5089162;28;45184;-69
2022/10/20 04:52:16;;;;;;;2.20;2.00;;;19.30;61.90;;;;;;5089317;28;45552;-70
2022/10/20 04:54:42;;;;;;;2.30;2.10;;;19.20;61.80;;;;;;5088774;28;45618;-69
2022/10/20 04:57:10;;;;;;;2.35;2.15;;;19.20;61.90;;;;;;5088935;28;45198;-69
2022/10/20 04:59:36;;;;;;;2.10;1.92;;;19.20;61.80;;;;;;5089057;28;45293;-69
2022/10/20 05:02:03;;;;;;;2.33;2.13;;;19.20;61.90;;;;;;5089250;28;45308;-69
2022/10/20 05:04:30;;;;;;;2.08;1.92;;;19.20;61.90;;;;;;5088649;28;46126;-69
2022/10/20 05:06:58;;;;;;;2.45;1.90;;;19.20;62.60;;;;;;5088716;28;45264;-69
2022/10/20 05:09:25;;;;;;;2.38;2.17;;;19.20;62.00;;;;;;5088884;28;45198;-69
2022/10/20 05:11:52;;;;;;;2.80;2.05;;;19.20;61.90;;;;;;5088974;28;45475;-69
2022/10/20 05:14:19;;;;;;;2.33;2.13;;;19.20;62.00;;;;;;5088679;28;47547;-69
2022/10/20 05:16:46;;;;;;;2.10;1.90;;;19.20;61.90;;;;;;5088754;28;45369;-69
2022/10/20 05:19:13;;;;;;;2.72;1.92;;;19.20;61.90;;;;;;5088735;28;45223;-69
2022/10/20 05:21:40;;;;;;;2.40;2.00;;;19.20;61.90;;;;;;5088915;28;45525;-69
2022/10/20 05:24:11;;;;;;;2.25;2.05;;;19.20;62.60;;;;;;5088468;28;45421;-69
2022/10/20 05:26:38;;;;;;;2.00;1.90;;;19.20;61.90;;;;;;5088921;28;45262;-70
2022/10/20 05:29:06;;;;;;;2.45;1.92;;;19.10;61.90;;;;;;5088544;28;45202;-69
2022/10/20 05:31:35;;;;;;;2.05;1.85;;;19.20;62.00;;;;;;5088845;28;45496;-70
2022/10/20 05:34:02;;;;;;;1.90;1.80;;;19.20;61.90;;;;;;5088308;28;46329;-70
2022/10/20 05:36:29;;;;;;;2.17;1.98;;;19.10;61.90;;;;;;5088137;28;45281;-70
2022/10/20 05:38:56;;;;;;;2.75;2.15;;;19.10;62.60;;;;;;5088593;28;45471;-70
2022/10/20 05:41:25;;;;;;;2.28;2.08;;;19.10;61.90;;;;;;5088664;28;45418;-70
2022/10/20 05:43:53;;;;;;;2.00;1.88;;;19.10;61.90;;;;;;5088158;28;45265;-69
2022/10/20 05:46:20;;;;;;;2.40;2.20;;;19.10;62.00;;;;;;5088210;28;45265;-70
2022/10/20 05:48:47;;;;;;;1.90;1.80;;;19.10;62.60;;;;;;5085655;28;45174;-70
2022/10/20 05:51:14;;;;;;;1.98;1.88;;;19.10;61.90;;;;;;5088717;28;45416;-70
2022/10/20 05:53:41;;;;;;;2.75;1.95;;;19.10;62.00;;;;;;5087978;28;45376;-70
2022/10/20 05:56:09;;;;;;;2.20;2.00;;;19.00;62.60;;;;;;5088031;28;45241;-70
2022/10/20 05:58:38;;;;;;;2.20;2.00;;;19.10;61.90;;;;;;5084932;27;45180;-70
2022/10/20 06:01:06;;;;;;;3.00;1.60;;;19.00;61.80;;;;;;5088336;28;45381;-70
2022/10/20 06:03:33;;;;;;;1.92;1.80;;;19.10;61.90;;;;;;5087866;28;46677;-70
2022/10/20 06:06:00;;;;;;;2.30;2.10;;;19.10;61.80;;;;;;5088045;28;45114;-70
2022/10/20 06:08:29;;;;;;;3.17;1.90;;;19.00;61.80;;;;;;5088276;28;45203;-70
2022/10/20 06:10:56;;;;;;;2.10;2.00;;;19.00;61.80;;;;;;5088376;28;45419;-70
2022/10/20 06:13:23;;;;;;;1.90;1.80;;;19.00;61.80;;;;;;5087963;28;45463;-70
2022/10/20 06:15:51;;;;;;;2.10;1.98;;;19.00;61.80;;;;;;5088015;28;45268;-71
2022/10/20 06:18:18;;;;;;;2.85;2.13;;;19.00;61.80;;;;;;5088198;28;45402;-70
2022/10/20 06:20:45;;;;;;;3.15;1.73;;;19.00;61.80;;;;;;5088404;28;45340;-70
2022/10/20 06:23:12;;;;;;;1.90;1.80;;;19.00;61.80;;;;;;5087817;28;46487;-70
2022/10/20 06:25:38;;;;;;;1.85;1.75;;;19.00;62.50;;;;;;5087990;28;45200;-70
2022/10/20 06:28:05;;;;;;;2.28;1.70;;;19.00;61.80;;;;;;5088100;28;45196;-71
2022/10/20 06:30:32;;;;;;;1.98;1.88;;;19.00;61.80;;;;;;5088163;28;45354;-70
2022/10/20 06:33:00;;;;;;;2.05;1.75;;;19.00;61.80;;;;;;5087721;28;46341;-70
2022/10/20 06:35:27;;;;;;;1.90;1.70;;;19.00;61.80;;;;;;5087586;28;45297;-71
2022/10/20 06:37:54;;;;;;;2.20;2.00;;;19.00;61.70;;;;;;5087818;28;45218;-70
2022/10/20 06:40:21;;;;;;;1.98;1.88;;;19.00;61.80;;;;;;5088158;28;45255;-71
2022/10/20 06:42:47;;;;;;;2.20;2.00;;;19.00;61.80;;;;;;5086855;28;45447;-71
2022/10/20 06:45:14;;;;;;;1.90;1.70;;;19.00;61.80;;;;;;5084472;27;45352;-70
2022/10/20 06:47:41;;;;;;;2.78;2.08;;;19.00;61.80;;;;;;5087502;28;45311;-70
2022/10/20 06:50:10;;;;;;;2.30;2.10;;;18.90;61.70;;;;;;5087973;28;45360;-70
2022/10/20 06:52:37;;;;;;;2.28;2.08;;;19.00;61.80;;;;;;5087260;28;45421;-70
2022/10/20 06:55:04;;;;;;;2.22;2.13;;;18.90;61.80;;;;;;5087495;28;45382;-70
2022/10/20 06:57:31;;;;;;;2.05;1.85;;;18.90;61.80;;;;;;5087336;28;45457;-70
2022/10/20 06:59:58;;;;;;;3.08;2.25;;;19.00;61.80;;;;;;5087761;28;45522;-71
2022/10/20 07:02:25;;;;;;;1.83;1.73;;;18.90;61.80;;;;;;5087171;28;46558;-71
2022/10/20 07:04:52;;;;;;;2.42;2.00;;;19.00;62.00;;;;;;5087229;28;45214;-72
2022/10/20 07:07:20;;;;;;;3.83;2.22;;;18.90;61.90;;;;;;5087343;28;45385;-71
2022/10/20 07:09:47;;;;;;;2.13;1.83;;;18.90;61.80;;;;;;5086559;28;45370;-70
2022/10/20 07:12:14;;;;;;;2.00;1.90;;;19.00;61.90;;;;;;5087218;28;45425;-71
2022/10/20 07:14:41;;;;;;;1.90;1.80;;;18.90;61.90;;;;;;5087746;28;45246;-71
2022/10/20 07:17:08;;;;;;;2.10;1.95;;;19.00;61.80;;;;;;5087315;28;45304;-70
2022/10/20 07:19:35;;;;;;;2.20;2.08;;;19.00;61.80;;;;;;5087421;28;45309;-71
2022/10/20 07:22:02;;;;;;;2.45;2.25;;;19.00;61.70;;;;;;5086990;28;47303;-72
2022/10/20 07:24:30;;;;;;;2.75;2.10;;;19.00;61.70;;;;;;5087228;28;46563;-70
2022/10/20 07:26:57;;;;;;;2.42;2.08;;;19.00;61.70;;;;;;5086810;28;45272;-70
2022/10/20 07:29:24;;;;;;;3.33;2.03;;;19.10;61.80;;;;;;5087031;28;45474;-70
2022/10/20 07:31:50;;;;;;;2.17;1.98;;;19.10;62.00;;;;;;5086405;28;46371;-70
2022/10/20 07:34:19;;;;;;;2.42;2.22;;;19.00;62.00;;;;;;5086618;28;45352;-70
2022/10/20 07:36:46;;;;;;;2.80;2.60;;;19.00;62.30;;;;;;5086649;28;45277;-69
2022/10/20 07:39:13;;;;;;;4.60;2.30;;;19.10;62.30;;;;;;5086749;28;45538;-69
2022/10/20 07:41:42;;;;;;;4.40;2.70;;;19.10;62.50;;;;;;5086489;28;47347;-70
2022/10/20 07:44:09;;;;;;;3.03;2.72;;;19.10;62.50;;;;;;5086147;28;45248;-70
2022/10/20 07:46:36;;;;;;;3.47;3.17;;;19.10;62.70;;;;;;5086655;28;45205;-70
2022/10/20 07:49:03;;;;;;;3.42;2.85;;;19.10;62.60;;;;;;5086608;28;45706;-70
2022/10/20 07:51:31;;;;;;;4.97;3.28;;;19.10;62.60;;;;;;5086292;28;45301;-70
2022/10/20 07:53:59;;;;;;;6.38;3.70;;;19.10;62.50;;;;;;5086819;28;45289;-70
2022/10/20 07:56:27;;;;;;;5.95;3.22;;;19.10;62.90;;;;;;5086248;28;45209;-70
2022/10/20 07:58:56;;;;;;;3.78;3.20;;;19.10;63.00;;;;;;5086659;28;45531;-70
2022/10/20 08:01:23;;;;;;;3.78;3.08;;;19.10;62.90;;;;;;5086213;28;45563;-70
2022/10/20 08:03:49;;;;;;;3.58;3.25;;;19.10;63.10;;;;;;5086290;28;45249;-70
2022/10/20 08:06:16;;;;;;;4.50;3.83;;;19.10;63.20;;;;;;5086398;28;45300;-71
2022/10/20 08:08:43;;;;;;;5.22;3.15;;;19.10;64.00;;;;;;5086546;28;45324;-70
2022/10/20 08:11:10;;;;;;;4.00;3.53;;;19.10;63.00;;;;;;5085813;28;46059;-70
2022/10/20 08:13:39;;;;;;;8.43;3.60;;;19.10;63.10;;;;;;5086074;28;45359;-70
2022/10/20 08:16:08;;;;;;;5.45;3.47;;;19.10;63.10;;;;;;5086218;28;45201;-70
2022/10/20 08:18:35;;;;;;;7.18;3.50;;;19.10;63.40;;;;;;5086374;28;45419;-70
2022/10/20 08:21:09;;;;;;;4.78;3.80;;;19.10;63.50;;;;;;5085675;27;46658;-70
2022/10/20 08:23:38;;;;;;;6.88;3.60;;;19.10;63.40;;;;;;5085838;28;45292;-70
2022/10/20 08:26:05;;;;;;;4.65;3.60;;;19.10;63.50;;;;;;5086224;28;45242;-70
2022/10/20 08:28:32;;;;;;;6.85;3.47;;;19.20;63.40;;;;;;5086169;28;45186;-70
2022/10/20 08:31:01;;;;;;;4.10;3.45;;;19.20;63.40;;;;;;5085816;28;46352;-70
2022/10/20 08:33:29;;;;;;;4.82;3.58;;;19.20;63.30;;;;;;5085999;28;45347;-70
2022/10/20 08:35:56;;;;;;;6.75;3.78;;;19.20;63.20;;;;;;5085716;28;45182;-71
2022/10/20 08:38:23;;;;;;;4.28;3.67;;;19.20;63.30;;;;;;5085176;28;45222;-71
2022/10/20 08:40:49;;;;;;;6.88;3.50;;;19.20;63.40;;;;;;5083921;28;48399;-70
2022/10/20 08:43:17;;;;;;;5.38;3.28;;;19.20;63.40;;;;;;5084586;28;45452;-70
2022/10/20 08:45:44;;;;;;;7.28;3.90;;;19.20;63.10;;;;;;5085434;28;45208;-70
2022/10/20 08:48:12;;;;;;;3.90;3.40;;;19.20;63.40;;;;;;5085302;28;45146;-71
2022/10/20 08:50:41;;;;;;;5.13;3.65;;;19.20;63.40;;;;;;5084717;27;46380;-70
2022/10/20 08:53:09;;;;;;;3.88;3.20;;;19.20;63.50;;;;;;5085250;28;45453;-70
2022/10/20 08:55:36;;;;;;;5.75;3.50;;;19.30;63.50;;;;;;5086089;28;45201;-71
2022/10/20 08:58:04;;;;;;;5.30;3.75;;;19.30;63.50;;;;;;5085540;27;45633;-68
2022/10/20 09:00:31;;;;;;;6.60;3.45;;;19.40;64.20;;;;;;5084426;28;45551;-72
2022/10/20 09:03:02;;;;;;;13.40;8.55;;;19.40;64.50;;;;;;5083903;27;45467;-68
2022/10/20 09:05:31;;;;;;;17.10;9.80;;;19.50;64.50;;;;;;5084494;27;45295;-68
2022/10/20 09:07:59;;;;;;;14.25;8.73;;;19.50;65.10;;;;;;5083699;28;45285;-68
2022/10/20 09:10:31;;;;;;;21.10;8.63;;;19.50;65.00;;;;;;5084985;28;45739;-67
2022/10/20 09:12:58;;;;;;;11.65;6.97;;;19.60;64.90;;;;;;5084984;28;45304;-69
2022/10/20 09:15:26;;;;;;;17.30;7.10;;;19.60;65.00;;;;;;5084948;28;45321;-68
2022/10/20 09:17:56;;;;;;;10.93;6.60;;;19.60;64.60;;;;;;5085336;28;45185;-68
2022/10/20 09:20:24;;;;;;;9.90;6.60;;;19.70;64.80;;;;;;5085050;28;45600;-68
2022/10/20 09:22:51;;;;;;;9.70;6.47;;;19.70;64.40;;;;;;5085262;28;45291;-69
2022/10/20 09:25:22;;;;;;;12.18;7.10;;;19.70;65.10;;;;;;5084799;28;45209;-69
2022/10/20 09:27:49;;;;;;;9.60;6.18;;;19.70;64.20;;;;;;5085687;28;45449;-69
2022/10/20 09:30:18;;;;;;;11.10;6.15;;;19.70;64.30;;;;;;5084786;28;46529;-69
2022/10/20 09:32:44;;;;;;;7.78;5.50;;;19.70;64.30;;;;;;5086572;28;45246;-68
2022/10/20 09:35:17;;;;;;;8.48;5.60;;;19.70;64.40;;;;;;5088518;28;45375;-69
2022/10/20 09:37:45;;;;;;;7.10;5.40;;;19.70;64.10;;;;;;5088373;28;45324;-69
2022/10/20 09:40:14;;;;;;;7.47;4.95;;;19.70;64.20;;;;;;5088075;28;46729;-68
2022/10/20 09:42:45;;;;;;;8.23;5.05;;;19.70;64.10;;;;;;5088125;28;45252;-69
2022/10/20 09:45:17;;;;;;;8.13;5.13;;;19.80;64.00;;;;;;5088378;28;45337;-68
2022/10/20 09:47:45;;;;;;;6.90;5.00;;;19.80;64.00;;;;;;5088596;28;45548;-69
2022/10/20 09:50:18;;;;;;;8.10;5.43;;;19.80;64.60;;;;;;5087936;28;46404;-68
2022/10/20 09:52:47;;;;;;;5.15;4.45;;;19.80;63.90;;;;;;5087958;28;45241;-68
2022/10/20 09:55:24;;;;;;;7.85;5.10;;;19.80;64.10;;;;;;5088346;28;45330;-68
2022/10/20 09:57:52;;;;;;;7.35;4.50;;;19.80;64.40;;;;;;5099277;27;45268;-67
2022/10/20 10:00:26;;;;;;;7.15;4.95;;;19.80;64.20;;;;;;5108539;27;45508;-68
2022/10/20 10:03:10;;;;;;;9.73;4.75;;;19.80;64.20;;;;;;5108445;27;45246;-68
2022/10/20 10:05:37;;;;;;;8.02;4.68;;;19.80;64.30;;;;;;5108362;27;45188;-68
2022/10/20 10:08:04;;;;;;;8.27;4.57;;;19.90;64.50;;;;;;5108558;27;45179;-68
2022/10/20 10:10:31;;;;;;;6.80;4.90;;;19.90;64.80;;;;;;5108304;27;47616;-68
2022/10/20 10:13:01;;;;;;;7.30;5.00;;;19.90;64.90;;;;;;5105649;27;45358;-69
2022/10/20 10:15:30;;;;;;;8.30;5.13;;;19.90;65.00;;;;;;5093403;27;45245;-68
2022/10/20 10:17:57;;;;;;;7.35;4.85;;;19.90;65.10;;;;;;5086766;28;45424;-68
2022/10/20 10:20:32;;;;;;;9.05;5.15;;;19.80;65.40;;;;;;5087456;28;46652;-68
2022/10/20 10:23:09;;;;;;;5.63;4.35;;;19.90;65.50;;;;;;5087421;28;45435;-70
2022/10/20 10:25:36;;;;;;;8.20;4.18;;;19.90;65.50;;;;;;5087197;28;45254;-68
2022/10/20 10:28:07;;;;;;;8.13;4.25;;;19.90;65.30;;;;;;5087764;28;45226;-68
2022/10/20 10:30:34;;;;;;;8.43;4.72;;;19.90;65.60;;;;;;5087085;28;45357;-68
2022/10/20 10:33:01;;;;;;;5.53;4.40;;;20.00;66.00;;;;;;5086952;28;45256;-68
2022/10/20 10:35:30;;;;;;;5.25;4.22;;;20.00;65.80;;;;;;5087001;28;45193;-68
2022/10/20 10:37:57;;;;;;;5.00;3.83;;;20.00;65.50;;;;;;5087414;28;45502;-68
2022/10/20 10:40:32;;;;;;;7.22;4.10;;;20.00;65.30;;;;;;5087088;28;46406;-67
2022/10/20 10:43:21;;;;;;;5.32;3.90;;;20.00;65.50;;;;;;5086370;27;45447;-68
2022/10/20 10:45:51;;;;;;;5.97;4.15;;;20.00;65.30;;;;;;5087150;28;45202;-68
2022/10/20 10:48:51;;;;;;;9.55;4.47;;;20.00;65.50;;;;;;5087612;28;45424;-67
2022/10/20 10:51:27;;;;;;;6.15;4.00;;;20.10;65.90;;;;;;5087422;28;45204;-70
2022/10/20 10:54:01;;;;;;;14.57;4.28;;;20.20;66.70;;;;;;5086765;28;45312;-70
2022/10/20 10:56:32;;;;;;;10.23;4.75;;;20.30;65.40;;;;;;5086860;28;45201;-70
2022/10/20 10:59:04;;;;;;;10.63;5.13;;;20.30;65.20;;;;;;5087062;28;45302;-71
2022/10/20 11:01:48;;;;;;;11.57;4.55;;;20.40;65.10;;;;;;5087197;28;46667;-71
2022/10/20 11:04:51;;;;;;;9.30;5.18;;;20.40;64.90;;;;;;5084956;28;45388;-71
2022/10/20 11:07:23;;;;;;;10.02;4.60;;;20.40;64.80;;;;;;5085708;28;45145;-73
2022/10/20 11:09:57;;;;;;;19.00;4.85;;;20.40;64.80;;;;;;5087159;28;45191;-72
2022/10/20 11:12:44;;;;;;;10.10;5.25;;;20.40;64.70;;;;;;5086476;28;45631;-71
2022/10/20 11:15:20;;;;;;;14.10;5.30;;;20.40;65.00;;;;;;5081252;28;45450;-70
2022/10/20 11:17:50;;;;;;;13.20;5.03;;;20.50;64.90;;;;;;5086858;28;45181;-71
2022/10/20 11:20:24;;;;;;;17.83;6.03;;;20.50;64.80;;;;;;5087328;28;45415;-71
2022/10/20 11:22:59;;;;;;;14.43;4.53;;;20.50;64.80;;;;;;5086900;28;45488;-70
2022/10/20 11:25:28;;;;;;;8.77;4.57;;;20.50;64.80;;;;;;5086492;28;45311;-70
2022/10/20 11:27:56;;;;;;;13.10;5.10;;;20.50;64.80;;;;;;5086440;28;45258;-71
2022/10/20 11:30:26;;;;;;;8.48;4.32;;;20.50;64.80;;;;;;5086859;28;45302;-70
2022/10/20 11:32:55;;;;;;;10.50;4.80;;;20.40;64.70;;;;;;5086701;28;46527;-70
2022/10/20 11:35:28;;;;;;;9.00;4.78;;;20.40;64.90;;;;;;5086934;28;45238;-70
2022/10/20 11:38:01;;;;;;;10.63;4.60;;;20.40;65.50;;;;;;5068598;28;45290;-70
2022/10/20 11:40:30;;;;;;;9.23;4.65;;;20.50;64.90;;;;;;5087363;28;45432;-70
2022/10/20 11:43:00;;;;;;;8.43;4.60;;;20.40;64.90;;;;;;5086168;28;45466;-71
2022/10/20 11:45:36;;;;;;;18.55;5.38;;;20.50;64.90;;;;;;5086331;28;45325;-72
2022/10/20 11:48:07;;;;;;;19.67;5.20;;;20.50;64.90;;;;;;5086686;28;45303;-72
2022/10/20 11:50:34;;;;;;;20.50;5.80;;;20.50;64.60;;;;;;5086958;28;45199;-72
2022/10/20 11:53:10;;;;;;;14.23;5.60;;;20.50;65.10;;;;;;5066047;28;46408;-72
2022/10/20 11:55:51;;;;;;;17.05;5.63;;;20.50;64.80;;;;;;5073895;28;45463;-71
2022/10/20 11:58:26;;;;;;;12.77;4.85;;;20.50;64.80;;;;;;5086659;28;45146;-70
2022/10/20 12:01:00;;;;;;;19.85;5.22;;;20.50;64.70;;;;;;5086482;28;45432;-72
2022/10/20 12:03:47;;;;;;;14.13;5.15;;;20.50;64.70;;;;;;5086403;28;45374;-72
2022/10/20 12:06:27;;;;;;;11.40;4.88;;;20.60;64.50;;;;;;5086399;28;45248;-70
2022/10/20 12:09:15;;;;;;;8.07;4.65;;;20.60;64.60;;;;;;5086273;28;45385;-71
2022/10/20 12:11:46;;;;;;;9.23;4.40;;;20.60;64.60;;;;;;5086167;28;45412;-70
2022/10/20 12:14:18;;;;;;;10.40;4.50;;;20.60;64.70;;;;;;5085627;28;46644;-70
2022/10/20 12:17:09;;;;;;;9.48;4.90;;;20.60;64.60;;;;;;5085646;28;45201;-71
2022/10/20 12:19:36;;;;;;;14.60;4.80;;;20.60;64.80;;;;;;5085841;28;45303;-72
2022/10/20 12:22:04;;;;;;;10.82;5.10;;;20.60;64.90;;;;;;5086163;28;45175;-71
2022/10/20 12:24:35;;;;;;;10.38;4.82;;;20.60;65.80;;;;;;5085850;28;46553;-72
2022/10/20 12:27:16;;;;;;;10.75;4.82;;;20.60;65.20;;;;;;5085840;28;45297;-71
2022/10/20 12:29:57;;;;;;;10.35;5.50;;;20.60;65.70;;;;;;5085500;28;45342;-72
2022/10/20 12:32:44;;;;;;;12.75;4.93;;;20.60;65.30;;;;;;5065482;28;45397;-70
2022/10/20 12:35:44;;;;;;;12.60;4.45;;;20.60;65.10;;;;;;5065148;28;47602;-70
2022/10/20 12:38:16;;;;;;;8.20;4.80;;;20.60;65.60;;;;;;5052012;28;45448;-71
2022/10/20 12:40:45;;;;;;;10.45;5.15;;;20.60;65.70;;;;;;5085581;28;45513;-73
2022/10/20 12:43:23;;;;;;;9.30;4.50;;;20.70;66.20;;;;;;5084877;28;45206;-72
2022/10/20 12:45:50;;;;;;;11.93;5.53;;;20.70;66.30;;;;;;5082916;28;46400;-72
2022/10/20 12:48:19;;;;;;;9.88;4.60;;;20.70;66.20;;;;;;5085545;28;45324;-72
2022/10/20 12:50:48;;;;;;;14.27;4.85;;;20.70;66.40;;;;;;5085489;28;45262;-71
2022/10/20 12:53:20;;;;;;;9.50;4.32;;;20.70;66.50;;;;;;5085716;28;45202;-72
2022/10/20 12:55:48;;;;;;;9.98;4.57;;;20.70;66.70;;;;;;5084668;27;46386;-73
2022/10/20 12:58:29;;;;;;;10.80;5.60;;;20.70;67.00;;;;;;5085375;28;45191;-72